Aérodrome :
LOGIN :

S'inscrire | Disclaimer

   EN    FR    IT 

 










Légende :    VFR   VFR Marginal   IFR   IFR Intensif   IFR Très Intensif
Visi : 
Plafond : 
>= 8 km
>= 3000ft
5 à 8 km
1000 à 3000 ft
1500m à 5 km
500 à 1000 ft
800 à 1500m
200 à 500 ft
< 800m
< 200 ft
Symboles :   Orages  Brouillard  Fortes neiges  Fortes précipitations  Vent > 20 kt
SIGMETs :   Divers  Orages  Givrage  Turbulence  Onde Orograph.  Cendres Volcan.






- Altitude de l'aérodrome : 19 ft
- Code IATA : LCY


EGLC - London City

DERNIER METAR :
  • 041620Z AUTO 08006KT 9999 NCD 21/12 Q1012

METARs EXPIRÉS :
  • 041550Z AUTO 12006KT 090V150 9999 NCD 21/12 Q1012
  • 041520Z AUTO 11007KT 100V160 9999 SCT046 21/12 Q1012
  • 041450Z AUTO VRB02KT 9999 BKN046 21/11 Q1012
  • 041420Z AUTO 09005KT 020V130 9999 BKN044 21/11 Q1013
  • 041350Z AUTO 10005KT 070V140 9999 SCT043 21/12 Q1013
  • 041320Z AUTO 08004KT 040V120 9999 SCT042 20/12 Q1013

TAF TAF EGLC
Valide du 04 à 15h jusqu'au 04 à 21h UTC


041359Z 0415/0421 11005KT 9999 FEW025
ATIS : +44 20 7646 0224



MET'MAP, la Météo Aéronautique d'un coup d'oeil ! - Copyright ORBIFLY Décembre 2007 - Disclaimer

ORBIFLY MET'MAP TEAM :

Programmation & Développement : Alexandra Zaïnal
Sur une idée originale de : Baudouin d'Aumeries
Assistance à la programmation : Marc-Olivier Méhu
Soutien technique & logistique : Manuel Goepfert

Contact : metmap@orbifly.com




SOURCES & CREDITS :

   NOAA